Wetterstation Vordersexau
Wetterdaten: Woche 15.10.12 - 21.10.12 (KW42)
Datum Zeit Temp. A. Feuchte A. Luftdruck Regen Wind Richtung Taupunkt Windchill Windben
15.10.2012 00:00 14,2 C 66 % 997,2 hPa 0,0 l/m 14,9 km/h SW 7,9 C 10,3 C 8,3 km/h
15.10.2012 01:00 9,6 C 84 % 998,4 hPa 0,7 l/m 20,7 km/h S-SW 7,0 C 2,5 C 11,5 km/h
15.10.2012 02:00 9,8 C 85 % 998,7 hPa 0,0 l/m 8,4 km/h SW 7,4 C 8,4 C 4,7 km/h
15.10.2012 03:00 9,3 C 83 % 999,6 hPa 0,0 l/m 15,6 km/h NW 6,6 C 4,0 C 8,6 km/h
15.10.2012 04:00 8,8 C 84 % 1000,9 hPa 0,0 l/m 2,6 km/h W-NW 6,2 C 8,8 C 1,4 km/h
15.10.2012 05:00 7,6 C 80 % 1002,6 hPa 0,0 l/m 0,0 km/h W-NW 4,4 C 7,6 C 0,0 km/h
15.10.2012 06:00 6,6 C 82 % 1003,5 hPa 0,0 l/m 3,2 km/h W-SW 3,8 C 6,6 C 1,8 km/h
15.10.2012 07:00 6,6 C 84 % 1004,2 hPa 0,0 l/m 1,3 km/h S-SW 4,1 C 6,6 C 0,7 km/h
15.10.2012 08:00 6,7 C 83 % 1005,2 hPa 0,0 l/m 13,0 km/h W-NW 4,0 C 2,2 C 7,2 km/h
15.10.2012 09:00 7,0 C 83 % 1006,4 hPa 0,0 l/m 7,8 km/h S-SW 4,3 C 5,9 C 4,3 km/h
15.10.2012 10:00 7,4 C 80 % 1007,0 hPa 0,0 l/m 14,3 km/h W-SW 4,2 C 2,3 C 7,9 km/h
15.10.2012 11:00 7,6 C 79 % 1008,0 hPa 0,0 l/m 17,5 km/h W 4,2 C 1,1 C 9,7 km/h
15.10.2012 12:00 7,9 C 77 % 1008,2 hPa 0,0 l/m 10,4 km/h S-SW 4,1 C 5,0 C 5,8 km/h
15.10.2012 13:00 8,2 C 77 % 1008,8 hPa 0,0 l/m 21,4 km/h S 4,4 C 0,5 C 11,9 km/h
15.10.2012 14:00 8,9 C 77 % 1008,8 hPa 0,0 l/m 13,0 km/h SW 5,1 C 4,7 C 7,2 km/h
15.10.2012 15:00 8,9 C 77 % 1008,9 hPa 0,0 l/m 8,4 km/h S-SW 5,1 C 7,4 C 4,7 km/h
15.10.2012 16:00 8,3 C 77 % 1009,0 hPa 0,0 l/m 8,4 km/h S 4,5 C 6,8 C 4,7 km/h
15.10.2012 17:00 8,4 C 77 % 1009,6 hPa 0,0 l/m 2,6 km/h SW 4,6 C 8,4 C 1,4 km/h
15.10.2012 18:00 8,6 C 77 % 1010,0 hPa 0,0 l/m 0,0 km/h S-SW 4,8 C 8,6 C 0,0 km/h
15.10.2012 19:00 5,8 C 81 % 1010,4 hPa 0,0 l/m 0,0 km/h SO 2,8 C 5,8 C 0,0 km/h
15.10.2012 20:00 4,3 C 85 % 1011,0 hPa 0,0 l/m 1,3 km/h O-NO 2,0 C 4,3 C 0,7 km/h
15.10.2012 21:00 5,2 C 84 % 1011,4 hPa 0,0 l/m 0,0 km/h SO 2,7 C 5,2 C 0,0 km/h
15.10.2012 22:00 4,8 C 85 % 1011,6 hPa 0,0 l/m 0,0 km/h O-NO 2,5 C 4,8 C 0,0 km/h
15.10.2012 23:00 4,6 C 84 % 1011,9 hPa 0,0 l/m 0,0 km/h SO 2,1 C 4,6 C 0,0 km/h
16.10.2012 00:00 2,9 C 84 % 1011,9 hPa 0,0 l/m 0,0 km/h SO 0,5 C 2,9 C 0,0 km/h
16.10.2012 01:00 2,4 C 84 % 1011,9 hPa 0,0 l/m 0,0 km/h SO -0,0 C 2,4 C 0,0 km/h
16.10.2012 02:00 2,1 C 83 % 1011,6 hPa 0,0 l/m 0,0 km/h S-SO -0,5 C 2,1 C 0,0 km/h
16.10.2012 03:00 1,9 C 83 % 1011,2 hPa 0,0 l/m 0,0 km/h S-SO -0,7 C 1,9 C 0,0 km/h
16.10.2012 04:00 1,7 C 81 % 1010,9 hPa 0,0 l/m 0,0 km/h SO -1,2 C 1,7 C 0,0 km/h
16.10.2012 05:00 1,4 C 81 % 1010,8 hPa 0,0 l/m 0,0 km/h SO -1,5 C 1,4 C 0,0 km/h
16.10.2012 06:00 1,2 C 81 % 1010,5 hPa 0,0 l/m 0,0 km/h SO -1,7 C 1,2 C 0,0 km/h
16.10.2012 07:00 0,9 C 81 % 1010,6 hPa 0,0 l/m 1,9 km/h NO -2,0 C 0,9 C 1,1 km/h
16.10.2012 08:00 1,0 C 80 % 1010,2 hPa 0,0 l/m 0,0 km/h SO -2,1 C 1,0 C 0,0 km/h
16.10.2012 09:00 4,1 C 72 % 1010,1 hPa 0,0 l/m 0,0 km/h S-SO -0,5 C 4,1 C 0,0 km/h
16.10.2012 10:00 12,1 C 84 % 1010,6 hPa 0,0 l/m 0,0 km/h S-SO 9,5 C 12,1 C 0,0 km/h
16.10.2012 11:00 16,6 C 63 % 1010,6 hPa 0,0 l/m 0,0 km/h S 9,5 C 16,6 C 0,0 km/h
16.10.2012 12:00 18,3 C 53 % 1010,1 hPa 0,0 l/m 0,0 km/h W 8,6 C 18,3 C 0,0 km/h
16.10.2012 13:00 16,4 C 44 % 1009,7 hPa 0,0 l/m 0,6 km/h W 4,1 C 16,4 C 0,4 km/h
16.10.2012 14:00 14,3 C 46 % 1009,7 hPa 0,0 l/m 4,5 km/h S-SW 2,8 C 14,3 C 2,5 km/h
16.10.2012 15:00 13,9 C 52 % 1009,7 hPa 0,0 l/m 0,0 km/h SW 4,2 C 13,9 C 0,0 km/h
16.10.2012 16:00 12,9 C 55 % 1009,9 hPa 0,0 l/m 0,0 km/h SW 4,1 C 12,9 C 0,0 km/h
16.10.2012 17:00 11,6 C 63 % 1010,1 hPa 0,0 l/m 0,6 km/h O-NO 4,8 C 11,6 C 0,4 km/h
16.10.2012 18:00 10,3 C 74 % 1010,5 hPa 0,0 l/m 0,0 km/h W 5,9 C 10,3 C 0,0 km/h
16.10.2012 19:00 10,1 C 79 % 1011,1 hPa 0,0 l/m 0,0 km/h SW 6,6 C 10,1 C 0,0 km/h
16.10.2012 20:00 9,6 C 80 % 1011,9 hPa 0,4 l/m 0,0 km/h O 6,3 C 9,6 C 0,0 km/h
16.10.2012 21:00 9,1 C 84 % 1011,5 hPa 0,0 l/m 0,0 km/h O 6,5 C 9,1 C 0,0 km/h
16.10.2012 22:00 8,8 C 84 % 1011,9 hPa 0,0 l/m 0,0 km/h O-SO 6,2 C 8,8 C 0,0 km/h
16.10.2012 23:00 8,9 C 84 % 1011,8 hPa 0,0 l/m 0,0 km/h S-SO 6,3 C 8,9 C 0,0 km/h
17.10.2012 00:00 8,7 C 84 % 1011,4 hPa 0,0 l/m 0,0 km/h SO 6,2 C 8,7 C 0,0 km/h
17.10.2012 01:00 9,3 C 82 % 1011,0 hPa 0,0 l/m 0,0 km/h NO 6,4 C 9,3 C 0,0 km/h
17.10.2012 02:00 8,4 C 83 % 1010,7 hPa 0,0 l/m 0,0 km/h SO 5,7 C 8,4 C 0,0 km/h
17.10.2012 03:00 8,9 C 81 % 1010,4 hPa 0,0 l/m 0,0 km/h NO 5,8 C 8,9 C 0,0 km/h
17.10.2012 04:00 6,6 C 83 % 1010,5 hPa 0,0 l/m 0,0 km/h N 3,9 C 6,6 C 0,0 km/h
17.10.2012 05:00 7,0 C 81 % 1009,7 hPa 0,0 l/m 1,9 km/h S-SO 4,0 C 7,0 C 1,1 km/h
17.10.2012 06:00 6,1 C 81 % 1009,6 hPa 0,0 l/m 0,0 km/h O 3,1 C 6,1 C 0,0 km/h
17.10.2012 07:00 6,1 C 79 % 1009,4 hPa 0,0 l/m 0,0 km/h SO 2,7 C 6,1 C 0,0 km/h
17.10.2012 08:00 6,1 C 78 % 1009,7 hPa 0,0 l/m 0,0 km/h SO 2,6 C 6,1 C 0,0 km/h
17.10.2012 09:00 9,9 C 68 % 1010,1 hPa 0,0 l/m 0,0 km/h S-SO 4,3 C 9,9 C 0,0 km/h
17.10.2012 10:00 14,4 C 84 % 1010,9 hPa 0,0 l/m 0,0 km/h SO 11,7 C 14,4 C 0,0 km/h
17.10.2012 11:00 18,9 C 64 % 1010,6 hPa 0,0 l/m 0,0 km/h W 11,9 C 18,9 C 0,0 km/h
17.10.2012 12:00 22,4 C 56 % 1010,6 hPa 0,0 l/m 0,0 km/h W-NW 13,2 C 22,4 C 0,0 km/h
17.10.2012 13:00 22,2 C 57 % 1010,5 hPa 0,0 l/m 0,0 km/h O-SO 13,3 C 22,2 C 0,0 km/h
17.10.2012 14:00 23,9 C 50 % 1010,3 hPa 0,0 l/m 0,0 km/h W 12,8 C 23,9 C 0,0 km/h
17.10.2012 15:00 23,8 C 46 % 1010,0 hPa 0,0 l/m 2,6 km/h NW 11,5 C 23,8 C 1,4 km/h
17.10.2012 16:00 23,9 C 47 % 1009,8 hPa 0,0 l/m 0,0 km/h O-NO 11,9 C 23,9 C 0,0 km/h
17.10.2012 17:00 22,2 C 59 % 1009,3 hPa 0,0 l/m 3,2 km/h O-NO 13,8 C 22,2 C 1,8 km/h
17.10.2012 18:00 16,3 C 71 % 1008,9 hPa 0,0 l/m 0,0 km/h S-SO 11,0 C 16,3 C 0,0 km/h
17.10.2012 19:00 13,3 C 80 % 1009,2 hPa 0,0 l/m 0,0 km/h O-SO 9,9 C 13,3 C 0,0 km/h
17.10.2012 20:00 11,3 C 83 % 1009,4 hPa 0,0 l/m 0,0 km/h O-SO 8,5 C 11,3 C 0,0 km/h
17.10.2012 21:00 10,5 C 84 % 1009,3 hPa 0,0 l/m 0,0 km/h O-NO 7,9 C 10,5 C 0,0 km/h
17.10.2012 22:00 9,5 C 84 % 1009,9 hPa 0,0 l/m 0,0 km/h SO 6,9 C 9,5 C 0,0 km/h
17.10.2012 23:00 7,9 C 84 % 1009,9 hPa 0,0 l/m 3,9 km/h NO 5,4 C 7,9 C 2,2 km/h
18.10.2012 00:00 8,1 C 82 % 1009,8 hPa 0,0 l/m 0,0 km/h NO 5,2 C 8,1 C 0,0 km/h
18.10.2012 01:00 6,6 C 82 % 1010,5 hPa 0,0 l/m 0,0 km/h NO 3,8 C 6,6 C 0,0 km/h
18.10.2012 02:00 6,6 C 81 % 1010,6 hPa 0,0 l/m 0,0 km/h O-SO 3,6 C 6,6 C 0,0 km/h
18.10.2012 03:00 6,8 C 80 % 1010,3 hPa 0,0 l/m 0,0 km/h O-NO 3,6 C 6,8 C 0,0 km/h
18.10.2012 04:00 6,9 C 79 % 1009,9 hPa 0,0 l/m 0,0 km/h NO 3,5 C 6,9 C 0,0 km/h
18.10.2012 05:00 7,3 C 77 % 1009,7 hPa 0,0 l/m 0,0 km/h O-NO 3,5 C 7,3 C 0,0 km/h
18.10.2012 06:00 6,2 C 77 % 1009,4 hPa 0,0 l/m 0,0 km/h NO 2,5 C 6,2 C 0,0 km/h
18.10.2012 07:00 7,0 C 76 % 1009,6 hPa 0,0 l/m 0,0 km/h NO 3,1 C 7,0 C 0,0 km/h
18.10.2012 08:00 7,2 C 75 % 1010,1 hPa 0,0 l/m 0,0 km/h NO 3,1 C 7,2 C 0,0 km/h
18.10.2012 09:00 9,0 C 70 % 1010,6 hPa 0,0 l/m 0,0 km/h N-NW 3,8 C 9,0 C 0,0 km/h
18.10.2012 10:00 14,9 C 84 % 1011,3 hPa 0,0 l/m 0,0 km/h NO 12,2 C 14,9 C 0,0 km/h
18.10.2012 11:00 20,9 C 64 % 1011,6 hPa 0,0 l/m 0,0 km/h W-NW 13,8 C 20,9 C 0,0 km/h
18.10.2012 12:00 21,3 C 59 % 1011,1 hPa 0,0 l/m 0,0 km/h W-SW 13,0 C 21,3 C 0,0 km/h
18.10.2012 13:00 23,8 C 58 % 1010,6 hPa 0,0 l/m 0,0 km/h W-NW 15,0 C 23,8 C 0,0 km/h
18.10.2012 14:00 23,2 C 55 % 1010,1 hPa 0,0 l/m 0,0 km/h NW 13,6 C 23,2 C 0,0 km/h
18.10.2012 15:00 22,1 C 60 % 1010,6 hPa 0,0 l/m 0,0 km/h S-SO 14,0 C 22,1 C 0,0 km/h
18.10.2012 16:00 23,9 C 54 % 1010,4 hPa 0,0 l/m 0,0 km/h S-SO 14,0 C 23,9 C 0,0 km/h
18.10.2012 17:00 19,6 C 68 % 1010,0 hPa 0,0 l/m 0,0 km/h O-SO 13,5 C 19,6 C 0,0 km/h
18.10.2012 18:00 15,8 C 78 % 1010,3 hPa 0,0 l/m 0,0 km/h NO 12,0 C 15,8 C 0,0 km/h
18.10.2012 19:00 12,9 C 83 % 1010,5 hPa 0,0 l/m 0,6 km/h O-SO 10,1 C 12,9 C 0,4 km/h
18.10.2012 20:00 11,4 C 83 % 1011,0 hPa 0,0 l/m 0,0 km/h S-SO 8,6 C 11,4 C 0,0 km/h
18.10.2012 21:00 10,1 C 83 % 1011,3 hPa 0,0 l/m 0,0 km/h S-SO 7,3 C 10,1 C 0,0 km/h
18.10.2012 22:00 9,8 C 82 % 1011,3 hPa 0,0 l/m 0,0 km/h NO 6,9 C 9,8 C 0,0 km/h
18.10.2012 23:00 9,5 C 81 % 1011,6 hPa 0,0 l/m 0,0 km/h O 6,4 C 9,5 C 0,0 km/h
19.10.2012 00:00 9,3 C 80 % 1011,6 hPa 0,0 l/m 0,0 km/h O 6,0 C 9,3 C 0,0 km/h
19.10.2012 01:00 8,3 C 80 % 1011,9 hPa 0,0 l/m 0,0 km/h S-SO 5,1 C 8,3 C 0,0 km/h
19.10.2012 02:00 8,3 C 79 % 1011,7 hPa 0,0 l/m 0,0 km/h S-SO 4,9 C 8,3 C 0,0 km/h
19.10.2012 03:00 7,9 C 78 % 1011,7 hPa 0,0 l/m 0,0 km/h O-NO 4,3 C 7,9 C 0,0 km/h
19.10.2012 04:00 7,9 C 77 % 1011,2 hPa 0,0 l/m 0,0 km/h O-NO 4,1 C 7,9 C 0,0 km/h
19.10.2012 05:00 8,3 C 75 % 1011,5 hPa 0,0 l/m 0,0 km/h SO 4,1 C 8,3 C 0,0 km/h
19.10.2012 06:00 7,6 C 75 % 1011,5 hPa 0,0 l/m 0,0 km/h SO 3,5 C 7,6 C 0,0 km/h
19.10.2012 07:00 6,7 C 75 % 1011,6 hPa 0,0 l/m 0,0 km/h SO 2,6 C 6,7 C 0,0 km/h
19.10.2012 08:00 6,8 C 75 % 1011,9 hPa 0,0 l/m 0,0 km/h S-SO 2,7 C 6,8 C 0,0 km/h
19.10.2012 09:00 10,1 C 66 % 1012,1 hPa 0,0 l/m 0,0 km/h W 4,0 C 10,1 C 0,0 km/h
19.10.2012 10:00 17,9 C 79 % 1012,2 hPa 0,0 l/m 0,0 km/h W 14,2 C 17,9 C 0,0 km/h
19.10.2012 11:00 21,3 C 63 % 1012,2 hPa 0,0 l/m 0,0 km/h W 14,0 C 21,3 C 0,0 km/h
19.10.2012 12:00 23,6 C 57 % 1012,2 hPa 0,0 l/m 0,0 km/h SO 14,6 C 23,6 C 0,0 km/h
19.10.2012 13:00 24,8 C 54 % 1011,6 hPa 0,0 l/m 0,0 km/h W-NW 14,8 C 24,8 C 0,0 km/h
19.10.2012 14:00 25,3 C 51 % 1010,9 hPa 0,0 l/m 0,0 km/h NW 14,4 C 25,3 C 0,0 km/h
19.10.2012 15:00 25,5 C 52 % 1010,9 hPa 0,0 l/m 0,0 km/h W-NW 14,9 C 25,5 C 0,0 km/h
19.10.2012 16:00 28,6 C 44 % 1011,5 hPa 0,0 l/m 2,6 km/h W-NW 15,1 C 28,6 C 1,4 km/h
19.10.2012 17:00 26,0 C 49 % 1012,4 hPa 0,0 l/m 0,0 km/h O-SO 14,4 C 26,0 C 0,0 km/h
19.10.2012 18:00 19,5 C 62 % 1013,1 hPa 0,0 l/m 0,0 km/h SO 12,0 C 19,5 C 0,0 km/h
19.10.2012 19:00 13,7 C 80 % 1013,4 hPa 0,0 l/m 0,0 km/h S-SO 10,3 C 13,7 C 0,0 km/h
19.10.2012 20:00 12,9 C 83 % 1013,6 hPa 0,0 l/m 0,0 km/h O-NO 10,1 C 12,9 C 0,0 km/h
19.10.2012 21:00 12,0 C 83 % 1014,0 hPa 0,0 l/m 0,0 km/h O-NO 9,2 C 12,0 C 0,0 km/h
19.10.2012 22:00 11,1 C 83 % 1014,4 hPa 0,0 l/m 0,0 km/h S-SO 8,3 C 11,1 C 0,0 km/h
19.10.2012 23:00 10,8 C 83 % 1014,8 hPa 0,0 l/m 0,0 km/h O 8,0 C 10,8 C 0,0 km/h
20.10.2012 00:00 9,7 C 81 % 1014,7 hPa 0,0 l/m 0,0 km/h O-NO 6,6 C 9,7 C 0,0 km/h
20.10.2012 01:00 9,0 C 81 % 1014,7 hPa 0,0 l/m 0,0 km/h O-NO 5,9 C 9,0 C 0,0 km/h
20.10.2012 02:00 7,8 C 81 % 1015,5 hPa 0,0 l/m 0,0 km/h NO 4,7 C 7,8 C 0,0 km/h
20.10.2012 03:00 7,9 C 80 % 1015,3 hPa 0,0 l/m 0,0 km/h S-SO 4,7 C 7,9 C 0,0 km/h
20.10.2012 04:00 8,6 C 78 % 1014,7 hPa 0,0 l/m 0,0 km/h NO 5,0 C 8,6 C 0,0 km/h
20.10.2012 05:00 8,1 C 77 % 1014,9 hPa 0,0 l/m 0,0 km/h O-NO 4,3 C 8,1 C 0,0 km/h
20.10.2012 06:00 7,2 C 77 % 1015,4 hPa 0,0 l/m 0,0 km/h O-SO 3,4 C 7,2 C 0,0 km/h
20.10.2012 07:00 7,6 C 76 % 1015,7 hPa 0,0 l/m 0,0 km/h O-SO 3,6 C 7,6 C 0,0 km/h
20.10.2012 08:00 8,2 C 75 % 1016,4 hPa 0,0 l/m 0,0 km/h S-SO 4,0 C 8,2 C 0,0 km/h
20.10.2012 09:00 11,4 C 65 % 1017,2 hPa 0,0 l/m 0,0 km/h O-SO 5,1 C 11,4 C 0,0 km/h
20.10.2012 10:00 18,9 C 82 % 1017,2 hPa 0,0 l/m 0,0 km/h S-SO 15,8 C 18,9 C 0,0 km/h
20.10.2012 11:00 22,4 C 64 % 1017,1 hPa 0,0 l/m 3,2 km/h NW 15,2 C 22,4 C 1,8 km/h
20.10.2012 12:00 26,0 C 55 % 1016,9 hPa 0,0 l/m 1,3 km/h NW 16,2 C 26,0 C 0,7 km/h
20.10.2012 13:00 25,2 C 57 % 1016,2 hPa 0,0 l/m 9,1 km/h W 16,1 C 24,6 C 5,0 km/h
20.10.2012 14:00 26,1 C 55 % 1015,7 hPa 0,0 l/m 0,0 km/h W-NW 16,3 C 26,1 C 0,0 km/h
20.10.2012 15:00 29,3 C 47 % 1015,3 hPa 0,0 l/m 1,9 km/h NW 16,8 C 29,3 C 1,1 km/h
20.10.2012 16:00 29,5 C 47 % 1014,6 hPa 0,0 l/m 1,9 km/h W-NW 17,0 C 29,5 C 1,1 km/h
20.10.2012 17:00 26,5 C 53 % 1014,1 hPa 0,0 l/m 0,0 km/h SO 16,1 C 26,5 C 0,0 km/h
20.10.2012 18:00 19,3 C 68 % 1014,2 hPa 0,0 l/m 0,0 km/h S-SO 13,2 C 19,3 C 0,0 km/h
20.10.2012 19:00 14,8 C 80 % 1014,3 hPa 0,0 l/m 0,0 km/h N-NW 11,4 C 14,8 C 0,0 km/h
20.10.2012 20:00 14,3 C 82 % 1014,3 hPa 0,0 l/m 0,0 km/h NO 11,3 C 14,3 C 0,0 km/h
20.10.2012 21:00 11,8 C 83 % 1014,7 hPa 0,0 l/m 0,0 km/h O-NO 9,0 C 11,8 C 0,0 km/h
20.10.2012 22:00 11,9 C 83 % 1014,4 hPa 0,0 l/m 0,0 km/h SO 9,1 C 11,9 C 0,0 km/h
20.10.2012 23:00 10,8 C 83 % 1014,4 hPa 0,0 l/m 0,0 km/h O-NO 8,0 C 10,8 C 0,0 km/h
21.10.2012 00:00 11,4 C 80 % 1014,4 hPa 0,0 l/m 0,0 km/h O-NO 8,1 C 11,4 C 0,0 km/h
21.10.2012 01:00 10,2 C 81 % 1014,4 hPa 0,0 l/m 0,0 km/h O-SO 7,1 C 10,2 C 0,0 km/h
21.10.2012 02:00 9,9 C 79 % 1013,9 hPa 0,0 l/m 0,0 km/h NO 6,4 C 9,9 C 0,0 km/h
21.10.2012 03:00 9,4 C 78 % 1014,7 hPa 0,0 l/m 0,0 km/h O 5,8 C 9,4 C 0,0 km/h
21.10.2012 04:00 10,4 C 76 % 1014,0 hPa 0,0 l/m 0,0 km/h SO 6,4 C 10,4 C 0,0 km/h
21.10.2012 05:00 9,8 C 76 % 1013,6 hPa 0,0 l/m 0,0 km/h O-NO 5,8 C 9,8 C 0,0 km/h
21.10.2012 06:00 9,1 C 77 % 1014,1 hPa 0,0 l/m 0,0 km/h O-SO 5,3 C 9,1 C 0,0 km/h
21.10.2012 07:00 9,2 C 75 % 1013,8 hPa 0,0 l/m 0,0 km/h S-SO 5,0 C 9,2 C 0,0 km/h
21.10.2012 08:00 8,8 C 75 % 1014,7 hPa 0,0 l/m 0,0 km/h O-SO 4,6 C 8,8 C 0,0 km/h
21.10.2012 09:00 11,2 C 69 % 1015,1 hPa 0,0 l/m 0,0 km/h O-NO 5,7 C 11,2 C 0,0 km/h
21.10.2012 10:00 18,1 C 81 % 1014,7 hPa 0,0 l/m 0,0 km/h O-NO 14,8 C 18,1 C 0,0 km/h
21.10.2012 11:00 23,5 C 58 % 1014,8 hPa 0,0 l/m 0,0 km/h NO 14,7 C 23,5 C 0,0 km/h
21.10.2012 12:00 24,3 C 53 % 1014,7 hPa 0,0 l/m 0,0 km/h N-NW 14,1 C 24,3 C 0,0 km/h
21.10.2012 13:00 23,8 C 55 % 1014,8 hPa 0,0 l/m 0,0 km/h NO 14,2 C 23,8 C 0,0 km/h
21.10.2012 14:00 24,9 C 54 % 1014,0 hPa 0,0 l/m 0,0 km/h O-SO 14,9 C 24,9 C 0,0 km/h
21.10.2012 15:00 27,4 C 50 % 1013,9 hPa 0,0 l/m 0,0 km/h NW 16,0 C 27,4 C 0,0 km/h
21.10.2012 16:00 29,3 C 45 % 1013,1 hPa 0,0 l/m 0,0 km/h W-NW 16,1 C 29,3 C 0,0 km/h
21.10.2012 17:00 24,5 C 57 % 1013,1 hPa 0,0 l/m 0,0 km/h W-NW 15,4 C 24,5 C 0,0 km/h
21.10.2012 18:00 17,9 C 72 % 1013,6 hPa 0,0 l/m 0,0 km/h W 12,8 C 17,9 C 0,0 km/h
21.10.2012 19:00 14,4 C 81 % 1014,5 hPa 0,0 l/m 0,0 km/h S-SO 11,2 C 14,4 C 0,0 km/h
21.10.2012 20:00 12,0 C 83 % 1014,9 hPa 0,0 l/m 0,0 km/h NO 9,2 C 12,0 C 0,0 km/h
21.10.2012 21:00 11,8 C 83 % 1014,9 hPa 0,0 l/m 0,0 km/h NO 9,0 C 11,8 C 0,0 km/h
21.10.2012 22:00 10,1 C 83 % 1015,6 hPa 0,0 l/m 0,0 km/h O-NO 7,3 C 10,1 C 0,0 km/h
21.10.2012 23:00 9,8 C 83 % 1015,4 hPa 0,0 l/m 0,0 km/h O-NO 7,1 C 9,8 C 0,0 km/h
Min-Datum _ 16.10.12 16.10.12 15.10.12 - 15.10.12 - 16.10.12 15.10.12 15.10.12
_ Min-Zeit 07:19 13:19 00:19 - 05:19 - 08:19 13:19 05:19
Minimum _ 0,9 C 44 % 997,2 hPa - 0,0 km/h - -2,1 C 0,5 C 0,0 km/h
Max-Datum _ 20.10.12 15.10.12 20.10.12 15.10.12 15.10.12 - 20.10.12 20.10.12 15.10.12
_ Max-Zeit 16:19 02:19 09:19 01:19 13:19 - 16:19 16:19 13:19
Maximum _ 29,5 C 85 % 1017,2 hPa 0,7 l/m 21,4 km/h
S
- 17,0 C 29,5 C 11,9 km/h
S
Durchschnitt _ 12,5 C 73 % 1011,4 hPa #1,1 l/m 1,3 km/h SO 7,5 C 12,2 C 0,7 km/h
www.sexauwetter.de